Terminal Aerodrome Forecast
Issued by NWS

Home | Current Version | Previous Version | Text Only | Print | Product List | Glossary On
Versions: 1 2 3 4 5 6 7 8 9 10 11 12 13 14 15 16 17 18 19 20 21 22 23 24
000
FTPA31 PHFO 222300
TAFJHM
TAF
PHJH 222332Z 2300/2324 07016G24KT P6SM FEW030 SCT060
     FM230500 05011KT P6SM FEW025 SCT060
     FM232000 06015G23KT P6SM FEW030 SCT060
      AMD NOT SKED AFT 230400=

USA.gov is the U.S. government's official web portal to all federal, state and local government web resources and services.